Aliceville, Alabama
Current Conditions -  °F | °C
As of 5:53 AM on Sunday 25 Jan 2015 (Local Time) from KTCL Reporting Station
Clear Clear  
Wind Chill: 33°   Ceiling: Unl
Heat Index: 33°   Visibility: 10mi
Dew Point: 29°   Wind: 3mph
Humidity: 85%   Direction: 170°S
Pressure: 29.96"   Gusts: NA
Location:  33.13°N, 88.15°W
Report Text: KTCL 251153Z AUTO 17003KT 10SM CLR 01/M02 A2996 RMK AO2 SLP146 T00061017 10011 21017 56008
Loading
Personal Weather Stations






























Interactive Weather Map New forecast layout! Learn more

10-Day Weather Forecast

Advertisements
Track Severe Weather on mobile